sensor_id;sensor_type;location;lat;lon;timestamp;P1;durP1;ratioP1;P2;durP2;ratioP2
74614;SDS011;63121;51.458;-0.110;2023-03-03T00:00:14;7.20;;;2.40;;
74614;SDS011;63121;51.458;-0.110;2023-03-03T00:02:40;7.38;;;2.47;;
74614;SDS011;63121;51.458;-0.110;2023-03-03T00:05:05;6.87;;;2.30;;
74614;SDS011;63121;51.458;-0.110;2023-03-03T00:07:30;6.30;;;1.85;;
74614;SDS011;63121;51.458;-0.110;2023-03-03T00:09:57;9.65;;;2.22;;
74614;SDS011;63121;51.458;-0.110;2023-03-03T00:12:26;7.57;;;2.27;;
74614;SDS011;63121;51.458;-0.110;2023-03-03T00:14:54;6.00;;;2.25;;
74614;SDS011;63121;51.458;-0.110;2023-03-03T00:17:21;8.38;;;1.92;;
74614;SDS011;63121;51.458;-0.110;2023-03-03T00:19:47;5.38;;;1.90;;
74614;SDS011;63121;51.458;-0.110;2023-03-03T00:22:15;5.93;;;1.98;;
74614;SDS011;63121;51.458;-0.110;2023-03-03T00:27:43;6.70;;;2.25;;
74614;SDS011;63121;51.458;-0.110;2023-03-03T00:30:29;8.00;;;2.50;;
74614;SDS011;63121;51.458;-0.110;2023-03-03T00:32:54;7.20;;;2.30;;
74614;SDS011;63121;51.458;-0.110;2023-03-03T00:35:27;6.95;;;1.83;;
74614;SDS011;63121;51.458;-0.110;2023-03-03T00:37:55;5.70;;;1.95;;
74614;SDS011;63121;51.458;-0.110;2023-03-03T00:40:43;6.90;;;2.35;;
74614;SDS011;63121;51.458;-0.110;2023-03-03T00:43:21;7.28;;;2.15;;
74614;SDS011;63121;51.458;-0.110;2023-03-03T00:45:52;7.38;;;2.38;;
74614;SDS011;63121;51.458;-0.110;2023-03-03T00:50:50;10.57;;;2.40;;
74614;SDS011;63121;51.458;-0.110;2023-03-03T00:53:19;6.28;;;2.10;;
74614;SDS011;63121;51.458;-0.110;2023-03-03T00:55:46;6.60;;;2.13;;
74614;SDS011;63121;51.458;-0.110;2023-03-03T00:58:13;6.03;;;2.00;;
74614;SDS011;63121;51.458;-0.110;2023-03-03T01:00:39;8.93;;;2.50;;
74614;SDS011;63121;51.458;-0.110;2023-03-03T01:03:12;7.25;;;2.10;;
74614;SDS011;63121;51.458;-0.110;2023-03-03T01:05:40;6.78;;;2.50;;
74614;SDS011;63121;51.458;-0.110;2023-03-03T01:08:05;10.43;;;2.58;;
74614;SDS011;63121;51.458;-0.110;2023-03-03T01:10:31;8.80;;;2.50;;
74614;SDS011;63121;51.458;-0.110;2023-03-03T01:13:00;7.40;;;2.47;;
74614;SDS011;63121;51.458;-0.110;2023-03-03T01:15:25;8.93;;;2.63;;
74614;SDS011;63121;51.458;-0.110;2023-03-03T01:17:51;8.63;;;2.28;;
74614;SDS011;63121;51.458;-0.110;2023-03-03T01:20:16;7.55;;;2.13;;
74614;SDS011;63121;51.458;-0.110;2023-03-03T01:22:42;9.10;;;2.28;;
74614;SDS011;63121;51.458;-0.110;2023-03-03T01:25:08;8.10;;;2.45;;
74614;SDS011;63121;51.458;-0.110;2023-03-03T01:27:34;6.85;;;2.45;;
74614;SDS011;63121;51.458;-0.110;2023-03-03T01:30:00;7.90;;;2.22;;
74614;SDS011;63121;51.458;-0.110;2023-03-03T01:32:26;7.40;;;2.85;;
74614;SDS011;63121;51.458;-0.110;2023-03-03T01:34:52;6.45;;;1.80;;
74614;SDS011;63121;51.458;-0.110;2023-03-03T01:37:18;7.80;;;2.30;;
74614;SDS011;63121;51.458;-0.110;2023-03-03T01:39:48;7.03;;;2.25;;
74614;SDS011;63121;51.458;-0.110;2023-03-03T01:42:17;6.35;;;2.10;;
74614;SDS011;63121;51.458;-0.110;2023-03-03T01:44:44;6.97;;;2.28;;
74614;SDS011;63121;51.458;-0.110;2023-03-03T01:47:10;5.55;;;1.98;;
74614;SDS011;63121;51.458;-0.110;2023-03-03T01:54:56;8.27;;;2.33;;
74614;SDS011;63121;51.458;-0.110;2023-03-03T01:57:28;8.57;;;2.67;;
74614;SDS011;63121;51.458;-0.110;2023-03-03T02:00:00;8.50;;;2.20;;
74614;SDS011;63121;51.458;-0.110;2023-03-03T02:02:29;6.88;;;2.20;;
74614;SDS011;63121;51.458;-0.110;2023-03-03T02:04:55;6.88;;;2.30;;
74614;SDS011;63121;51.458;-0.110;2023-03-03T02:07:22;8.10;;;2.30;;
74614;SDS011;63121;51.458;-0.110;2023-03-03T02:09:51;5.90;;;2.03;;
74614;SDS011;63121;51.458;-0.110;2023-03-03T02:12:25;6.28;;;2.30;;
74614;SDS011;63121;51.458;-0.110;2023-03-03T02:17:46;7.03;;;2.47;;
74614;SDS011;63121;51.458;-0.110;2023-03-03T02:22:50;8.38;;;2.75;;
74614;SDS011;63121;51.458;-0.110;2023-03-03T02:25:24;8.48;;;2.55;;
74614;SDS011;63121;51.458;-0.110;2023-03-03T02:28:07;8.82;;;2.50;;
74614;SDS011;63121;51.458;-0.110;2023-03-03T02:30:36;8.07;;;2.47;;
74614;SDS011;63121;51.458;-0.110;2023-03-03T02:33:02;8.18;;;2.63;;
74614;SDS011;63121;51.458;-0.110;2023-03-03T02:35:32;4.60;;;1.70;;
74614;SDS011;63121;51.458;-0.110;2023-03-03T02:43:28;8.35;;;2.45;;
74614;SDS011;63121;51.458;-0.110;2023-03-03T02:46:00;9.60;;;3.05;;
74614;SDS011;63121;51.458;-0.110;2023-03-03T02:48:26;8.63;;;2.63;;
74614;SDS011;63121;51.458;-0.110;2023-03-03T02:50:51;8.40;;;2.50;;
74614;SDS011;63121;51.458;-0.110;2023-03-03T02:53:16;9.20;;;2.63;;
74614;SDS011;63121;51.458;-0.110;2023-03-03T02:55:42;7.60;;;2.53;;
74614;SDS011;63121;51.458;-0.110;2023-03-03T02:58:07;10.00;;;2.70;;
74614;SDS011;63121;51.458;-0.110;2023-03-03T03:00:32;8.93;;;2.80;;
74614;SDS011;63121;51.458;-0.110;2023-03-03T03:02:58;6.72;;;2.17;;
74614;SDS011;63121;51.458;-0.110;2023-03-03T03:05:23;7.18;;;2.28;;
74614;SDS011;63121;51.458;-0.110;2023-03-03T03:07:48;8.07;;;1.90;;
74614;SDS011;63121;51.458;-0.110;2023-03-03T03:10:14;8.30;;;3.03;;
74614;SDS011;63121;51.458;-0.110;2023-03-03T03:12:39;7.10;;;2.50;;
74614;SDS011;63121;51.458;-0.110;2023-03-03T03:15:06;8.23;;;2.35;;
74614;SDS011;63121;51.458;-0.110;2023-03-03T03:17:34;8.30;;;2.78;;
74614;SDS011;63121;51.458;-0.110;2023-03-03T03:20:00;10.00;;;3.10;;
74614;SDS011;63121;51.458;-0.110;2023-03-03T03:22:26;7.80;;;2.60;;
74614;SDS011;63121;51.458;-0.110;2023-03-03T03:24:51;5.90;;;2.13;;
74614;SDS011;63121;51.458;-0.110;2023-03-03T03:27:16;8.23;;;2.80;;
74614;SDS011;63121;51.458;-0.110;2023-03-03T03:29:43;8.25;;;2.90;;
74614;SDS011;63121;51.458;-0.110;2023-03-03T03:32:08;7.93;;;2.67;;
74614;SDS011;63121;51.458;-0.110;2023-03-03T03:34:34;7.47;;;2.23;;
74614;SDS011;63121;51.458;-0.110;2023-03-03T03:36:59;7.80;;;2.92;;
74614;SDS011;63121;51.458;-0.110;2023-03-03T03:39:24;9.90;;;2.42;;
74614;SDS011;63121;51.458;-0.110;2023-03-03T03:41:50;7.10;;;2.37;;
74614;SDS011;63121;51.458;-0.110;2023-03-03T03:44:15;10.13;;;2.90;;
74614;SDS011;63121;51.458;-0.110;2023-03-03T03:46:40;6.27;;;2.20;;
74614;SDS011;63121;51.458;-0.110;2023-03-03T03:49:06;7.90;;;2.47;;
74614;SDS011;63121;51.458;-0.110;2023-03-03T03:51:31;7.73;;;2.40;;
74614;SDS011;63121;51.458;-0.110;2023-03-03T03:53:57;8.57;;;2.92;;
74614;SDS011;63121;51.458;-0.110;2023-03-03T03:56:23;11.98;;;2.53;;
74614;SDS011;63121;51.458;-0.110;2023-03-03T03:58:48;8.30;;;2.70;;
74614;SDS011;63121;51.458;-0.110;2023-03-03T04:01:14;8.47;;;3.17;;
74614;SDS011;63121;51.458;-0.110;2023-03-03T04:03:39;7.57;;;2.70;;
74614;SDS011;63121;51.458;-0.110;2023-03-03T04:06:04;9.13;;;2.58;;
74614;SDS011;63121;51.458;-0.110;2023-03-03T04:08:30;7.40;;;2.80;;
74614;SDS011;63121;51.458;-0.110;2023-03-03T04:10:55;7.37;;;2.47;;
74614;SDS011;63121;51.458;-0.110;2023-03-03T04:13:20;9.75;;;2.60;;
74614;SDS011;63121;51.458;-0.110;2023-03-03T04:15:47;11.55;;;2.75;;
74614;SDS011;63121;51.458;-0.110;2023-03-03T04:18:12;8.07;;;2.50;;
74614;SDS011;63121;51.458;-0.110;2023-03-03T04:20:38;6.70;;;2.50;;
74614;SDS011;63121;51.458;-0.110;2023-03-03T04:23:04;6.20;;;2.25;;
74614;SDS011;63121;51.458;-0.110;2023-03-03T04:25:29;6.83;;;2.57;;
74614;SDS011;63121;51.458;-0.110;2023-03-03T04:27:55;7.67;;;2.60;;
74614;SDS011;63121;51.458;-0.110;2023-03-03T04:30:20;8.00;;;2.77;;
74614;SDS011;63121;51.458;-0.110;2023-03-03T04:32:46;7.07;;;2.30;;
74614;SDS011;63121;51.458;-0.110;2023-03-03T04:35:11;7.70;;;2.50;;
74614;SDS011;63121;51.458;-0.110;2023-03-03T04:37:37;7.28;;;2.78;;
74614;SDS011;63121;51.458;-0.110;2023-03-03T04:40:04;9.75;;;2.35;;
74614;SDS011;63121;51.458;-0.110;2023-03-03T04:42:31;7.13;;;2.30;;
74614;SDS011;63121;51.458;-0.110;2023-03-03T04:44:56;6.28;;;2.15;;
74614;SDS011;63121;51.458;-0.110;2023-03-03T04:47:22;6.50;;;2.10;;
74614;SDS011;63121;51.458;-0.110;2023-03-03T04:49:47;7.53;;;2.17;;
74614;SDS011;63121;51.458;-0.110;2023-03-03T04:52:12;8.60;;;2.08;;
74614;SDS011;63121;51.458;-0.110;2023-03-03T04:54:38;7.85;;;2.40;;
74614;SDS011;63121;51.458;-0.110;2023-03-03T04:57:03;7.47;;;2.10;;
74614;SDS011;63121;51.458;-0.110;2023-03-03T04:59:28;7.93;;;2.30;;
74614;SDS011;63121;51.458;-0.110;2023-03-03T05:01:54;8.17;;;2.03;;
74614;SDS011;63121;51.458;-0.110;2023-03-03T05:04:19;8.40;;;2.60;;
74614;SDS011;63121;51.458;-0.110;2023-03-03T05:06:44;7.88;;;2.40;;
74614;SDS011;63121;51.458;-0.110;2023-03-03T05:09:10;5.70;;;1.80;;
74614;SDS011;63121;51.458;-0.110;2023-03-03T05:11:35;6.40;;;2.10;;
74614;SDS011;63121;51.458;-0.110;2023-03-03T05:14:00;6.97;;;2.20;;
74614;SDS011;63121;51.458;-0.110;2023-03-03T05:16:27;6.20;;;2.00;;
74614;SDS011;63121;51.458;-0.110;2023-03-03T05:18:52;7.43;;;2.42;;
74614;SDS011;63121;51.458;-0.110;2023-03-03T05:21:18;7.40;;;2.10;;
74614;SDS011;63121;51.458;-0.110;2023-03-03T05:23:43;5.85;;;1.92;;
74614;SDS011;63121;51.458;-0.110;2023-03-03T05:26:08;5.60;;;2.00;;
74614;SDS011;63121;51.458;-0.110;2023-03-03T05:28:34;8.00;;;2.53;;
74614;SDS011;63121;51.458;-0.110;2023-03-03T05:30:59;6.93;;;2.45;;
74614;SDS011;63121;51.458;-0.110;2023-03-03T05:33:24;6.57;;;2.17;;
74614;SDS011;63121;51.458;-0.110;2023-03-03T05:35:53;7.23;;;2.10;;
74614;SDS011;63121;51.458;-0.110;2023-03-03T05:38:20;7.82;;;2.38;;
74614;SDS011;63121;51.458;-0.110;2023-03-03T05:40:45;9.43;;;2.22;;
74614;SDS011;63121;51.458;-0.110;2023-03-03T05:43:11;5.93;;;2.20;;
74614;SDS011;63121;51.458;-0.110;2023-03-03T05:45:37;6.43;;;2.05;;
74614;SDS011;63121;51.458;-0.110;2023-03-03T05:48:02;5.90;;;1.95;;
74614;SDS011;63121;51.458;-0.110;2023-03-03T05:50:29;5.47;;;1.88;;
74614;SDS011;63121;51.458;-0.110;2023-03-03T05:52:54;7.00;;;2.42;;
74614;SDS011;63121;51.458;-0.110;2023-03-03T05:55:20;4.10;;;1.48;;
74614;SDS011;63121;51.458;-0.110;2023-03-03T05:57:46;6.10;;;1.90;;
74614;SDS011;63121;51.458;-0.110;2023-03-03T06:00:13;7.05;;;2.00;;
74614;SDS011;63121;51.458;-0.110;2023-03-03T06:02:39;6.95;;;1.92;;
74614;SDS011;63121;51.458;-0.110;2023-03-03T06:05:06;5.75;;;1.90;;
74614;SDS011;63121;51.458;-0.110;2023-03-03T06:07:32;5.18;;;1.70;;
74614;SDS011;63121;51.458;-0.110;2023-03-03T06:09:57;5.07;;;1.67;;
74614;SDS011;63121;51.458;-0.110;2023-03-03T06:12:23;6.10;;;1.63;;
74614;SDS011;63121;51.458;-0.110;2023-03-03T06:14:48;5.75;;;1.48;;
74614;SDS011;63121;51.458;-0.110;2023-03-03T06:17:14;6.00;;;1.73;;
74614;SDS011;63121;51.458;-0.110;2023-03-03T06:19:39;5.50;;;1.70;;
74614;SDS011;63121;51.458;-0.110;2023-03-03T06:22:06;5.32;;;1.85;;
74614;SDS011;63121;51.458;-0.110;2023-03-03T06:24:31;6.10;;;1.90;;
74614;SDS011;63121;51.458;-0.110;2023-03-03T06:26:57;7.03;;;1.70;;
74614;SDS011;63121;51.458;-0.110;2023-03-03T06:29:23;4.82;;;1.52;;
74614;SDS011;63121;51.458;-0.110;2023-03-03T06:31:49;7.35;;;1.90;;
74614;SDS011;63121;51.458;-0.110;2023-03-03T06:34:14;4.20;;;1.55;;
74614;SDS011;63121;51.458;-0.110;2023-03-03T06:36:40;6.40;;;2.00;;
74614;SDS011;63121;51.458;-0.110;2023-03-03T06:39:05;4.40;;;1.53;;
74614;SDS011;63121;51.458;-0.110;2023-03-03T06:41:30;5.75;;;1.88;;
74614;SDS011;63121;51.458;-0.110;2023-03-03T06:43:56;6.70;;;1.75;;
74614;SDS011;63121;51.458;-0.110;2023-03-03T06:46:22;6.75;;;1.95;;
74614;SDS011;63121;51.458;-0.110;2023-03-03T06:48:48;6.35;;;1.83;;
74614;SDS011;63121;51.458;-0.110;2023-03-03T06:51:19;6.40;;;2.13;;
74614;SDS011;63121;51.458;-0.110;2023-03-03T06:53:49;8.02;;;2.22;;
74614;SDS011;63121;51.458;-0.110;2023-03-03T06:56:17;6.68;;;1.70;;
74614;SDS011;63121;51.458;-0.110;2023-03-03T06:58:43;6.25;;;2.08;;
74614;SDS011;63121;51.458;-0.110;2023-03-03T07:01:13;4.43;;;1.50;;
74614;SDS011;63121;51.458;-0.110;2023-03-03T07:03:41;5.70;;;1.83;;
74614;SDS011;63121;51.458;-0.110;2023-03-03T07:06:21;6.78;;;1.77;;
74614;SDS011;63121;51.458;-0.110;2023-03-03T07:08:48;11.00;;;1.80;;
74614;SDS011;63121;51.458;-0.110;2023-03-03T07:11:16;6.82;;;1.73;;
74614;SDS011;63121;51.458;-0.110;2023-03-03T07:13:48;5.05;;;1.77;;
74614;SDS011;63121;51.458;-0.110;2023-03-03T07:16:15;5.45;;;1.70;;
74614;SDS011;63121;51.458;-0.110;2023-03-03T07:18:45;4.93;;;1.40;;
74614;SDS011;63121;51.458;-0.110;2023-03-03T07:21:16;7.07;;;1.80;;
74614;SDS011;63121;51.458;-0.110;2023-03-03T07:23:44;5.70;;;1.67;;
74614;SDS011;63121;51.458;-0.110;2023-03-03T07:26:13;4.85;;;1.50;;
74614;SDS011;63121;51.458;-0.110;2023-03-03T07:28:42;3.55;;;1.25;;
74614;SDS011;63121;51.458;-0.110;2023-03-03T07:33:49;5.30;;;1.70;;
74614;SDS011;63121;51.458;-0.110;2023-03-03T07:36:21;5.73;;;1.80;;
74614;SDS011;63121;51.458;-0.110;2023-03-03T07:38:56;6.18;;;1.75;;
74614;SDS011;63121;51.458;-0.110;2023-03-03T07:41:24;5.05;;;1.75;;
74614;SDS011;63121;51.458;-0.110;2023-03-03T07:43:50;6.85;;;2.00;;
74614;SDS011;63121;51.458;-0.110;2023-03-03T07:48:44;7.13;;;1.90;;
74614;SDS011;63121;51.458;-0.110;2023-03-03T07:51:15;4.18;;;1.48;;
74614;SDS011;63121;51.458;-0.110;2023-03-03T07:53:46;6.05;;;2.05;;
74614;SDS011;63121;51.458;-0.110;2023-03-03T07:56:45;5.00;;;1.88;;
74614;SDS011;63121;51.458;-0.110;2023-03-03T08:02:04;7.57;;;1.58;;
74614;SDS011;63121;51.458;-0.110;2023-03-03T08:04:48;6.18;;;2.15;;
74614;SDS011;63121;51.458;-0.110;2023-03-03T08:07:16;6.10;;;2.08;;
74614;SDS011;63121;51.458;-0.110;2023-03-03T08:09:50;8.02;;;2.13;;
74614;SDS011;63121;51.458;-0.110;2023-03-03T08:14:49;5.45;;;1.92;;
74614;SDS011;63121;51.458;-0.110;2023-03-03T08:17:18;6.15;;;1.75;;
74614;SDS011;63121;51.458;-0.110;2023-03-03T08:19:46;6.28;;;1.98;;
74614;SDS011;63121;51.458;-0.110;2023-03-03T08:22:16;5.50;;;1.80;;
74614;SDS011;63121;51.458;-0.110;2023-03-03T08:24:44;6.47;;;1.90;;
74614;SDS011;63121;51.458;-0.110;2023-03-03T08:27:09;6.25;;;2.13;;
74614;SDS011;63121;51.458;-0.110;2023-03-03T08:29:38;6.20;;;2.00;;
74614;SDS011;63121;51.458;-0.110;2023-03-03T08:32:03;6.70;;;1.97;;
74614;SDS011;63121;51.458;-0.110;2023-03-03T08:34:29;6.70;;;1.92;;
74614;SDS011;63121;51.458;-0.110;2023-03-03T08:36:54;6.38;;;2.15;;
74614;SDS011;63121;51.458;-0.110;2023-03-03T08:39:22;10.50;;;1.98;;
74614;SDS011;63121;51.458;-0.110;2023-03-03T08:41:47;8.23;;;2.13;;
74614;SDS011;63121;51.458;-0.110;2023-03-03T08:44:12;6.60;;;2.00;;
74614;SDS011;63121;51.458;-0.110;2023-03-03T08:46:38;5.72;;;2.00;;
74614;SDS011;63121;51.458;-0.110;2023-03-03T08:49:03;6.32;;;2.00;;
74614;SDS011;63121;51.458;-0.110;2023-03-03T08:51:29;5.18;;;1.90;;
74614;SDS011;63121;51.458;-0.110;2023-03-03T08:53:54;6.30;;;2.08;;
74614;SDS011;63121;51.458;-0.110;2023-03-03T08:56:20;6.30;;;2.07;;
74614;SDS011;63121;51.458;-0.110;2023-03-03T08:58:45;5.95;;;1.95;;
74614;SDS011;63121;51.458;-0.110;2023-03-03T09:01:15;6.80;;;1.80;;
74614;SDS011;63121;51.458;-0.110;2023-03-03T09:03:41;6.25;;;1.85;;
74614;SDS011;63121;51.458;-0.110;2023-03-03T09:06:07;5.35;;;1.88;;
74614;SDS011;63121;51.458;-0.110;2023-03-03T09:08:33;9.38;;;2.10;;
74614;SDS011;63121;51.458;-0.110;2023-03-03T09:10:58;7.65;;;2.10;;
74614;SDS011;63121;51.458;-0.110;2023-03-03T09:13:24;5.82;;;1.90;;
74614;SDS011;63121;51.458;-0.110;2023-03-03T09:15:51;7.18;;;2.00;;
74614;SDS011;63121;51.458;-0.110;2023-03-03T09:18:18;5.07;;;1.75;;
74614;SDS011;63121;51.458;-0.110;2023-03-03T09:20:52;6.63;;;1.88;;
74614;SDS011;63121;51.458;-0.110;2023-03-03T09:25:56;8.13;;;2.28;;
74614;SDS011;63121;51.458;-0.110;2023-03-03T09:28:32;6.80;;;2.05;;
74614;SDS011;63121;51.458;-0.110;2023-03-03T09:30:59;5.82;;;1.77;;
74614;SDS011;63121;51.458;-0.110;2023-03-03T09:33:30;6.10;;;1.90;;
74614;SDS011;63121;51.458;-0.110;2023-03-03T09:38:53;5.75;;;1.60;;
74614;SDS011;63121;51.458;-0.110;2023-03-03T09:55:01;5.22;;;1.80;;
74614;SDS011;63121;51.458;-0.110;2023-03-03T10:19:06;6.88;;;1.63;;
74614;SDS011;63121;51.458;-0.110;2023-03-03T10:21:46;7.38;;;2.03;;
74614;SDS011;63121;51.458;-0.110;2023-03-03T10:24:28;8.98;;;2.72;;
74614;SDS011;63121;51.458;-0.110;2023-03-03T10:40:45;6.68;;;2.05;;
74614;SDS011;63121;51.458;-0.110;2023-03-03T11:03:26;3.67;;;1.25;;
74614;SDS011;63121;51.458;-0.110;2023-03-03T11:06:24;3.38;;;1.02;;
74614;SDS011;63121;51.458;-0.110;2023-03-03T11:11:36;4.53;;;1.40;;
74614;SDS011;63121;51.458;-0.110;2023-03-03T11:14:11;5.13;;;1.73;;
74614;SDS011;63121;51.458;-0.110;2023-03-03T11:33:09;4.00;;;1.30;;
74614;SDS011;63121;51.458;-0.110;2023-03-03T11:41:38;6.00;;;1.50;;
74614;SDS011;63121;51.458;-0.110;2023-03-03T11:44:17;4.97;;;1.30;;
74614;SDS011;63121;51.458;-0.110;2023-03-03T11:46:55;3.65;;;1.20;;
74614;SDS011;63121;51.458;-0.110;2023-03-03T12:00:53;2.83;;;1.02;;
74614;SDS011;63121;51.458;-0.110;2023-03-03T12:03:32;1.95;;;1.00;;
74614;SDS011;63121;51.458;-0.110;2023-03-03T12:06:09;3.28;;;1.10;;
74614;SDS011;63121;51.458;-0.110;2023-03-03T12:11:31;5.60;;;1.20;;
74614;SDS011;63121;51.458;-0.110;2023-03-03T12:14:13;2.28;;;1.05;;
74614;SDS011;63121;51.458;-0.110;2023-03-03T12:22:40;4.00;;;0.95;;
74614;SDS011;63121;51.458;-0.110;2023-03-03T12:33:49;2.50;;;1.08;;
74614;SDS011;63121;51.458;-0.110;2023-03-03T12:36:24;2.55;;;1.00;;
74614;SDS011;63121;51.458;-0.110;2023-03-03T12:41:47;3.83;;;1.00;;
74614;SDS011;63121;51.458;-0.110;2023-03-03T12:44:25;4.13;;;1.10;;
74614;SDS011;63121;51.458;-0.110;2023-03-03T12:47:05;2.97;;;1.10;;
74614;SDS011;63121;51.458;-0.110;2023-03-03T12:52:55;2.88;;;1.10;;
74614;SDS011;63121;51.458;-0.110;2023-03-03T13:01:21;3.35;;;0.98;;
74614;SDS011;63121;51.458;-0.110;2023-03-03T13:04:03;2.28;;;0.68;;
74614;SDS011;63121;51.458;-0.110;2023-03-03T13:17:47;2.60;;;1.00;;
74614;SDS011;63121;51.458;-0.110;2023-03-03T13:20:39;2.75;;;1.05;;
74614;SDS011;63121;51.458;-0.110;2023-03-03T13:23:11;6.00;;;1.70;;
74614;SDS011;63121;51.458;-0.110;2023-03-03T13:25:52;3.25;;;1.17;;
74614;SDS011;63121;51.458;-0.110;2023-03-03T13:33:56;1.13;;;0.73;;
74614;SDS011;63121;51.458;-0.110;2023-03-03T13:39:14;4.70;;;1.30;;
74614;SDS011;63121;51.458;-0.110;2023-03-03T13:44:37;4.47;;;1.10;;
74614;SDS011;63121;51.458;-0.110;2023-03-03T13:47:14;3.38;;;1.15;;
74614;SDS011;63121;51.458;-0.110;2023-03-03T13:52:45;3.42;;;1.00;;
74614;SDS011;63121;51.458;-0.110;2023-03-03T13:55:21;3.97;;;1.00;;
74614;SDS011;63121;51.458;-0.110;2023-03-03T14:01:08;4.35;;;1.50;;
74614;SDS011;63121;51.458;-0.110;2023-03-03T14:06:25;1.98;;;0.90;;
74614;SDS011;63121;51.458;-0.110;2023-03-03T14:11:41;3.58;;;0.82;;
74614;SDS011;63121;51.458;-0.110;2023-03-03T14:19:38;3.08;;;0.90;;
74614;SDS011;63121;51.458;-0.110;2023-03-03T14:22:11;2.17;;;0.68;;
74614;SDS011;63121;51.458;-0.110;2023-03-03T14:27:34;1.40;;;0.70;;
74614;SDS011;63121;51.458;-0.110;2023-03-03T14:38:08;2.95;;;1.15;;
74614;SDS011;63121;51.458;-0.110;2023-03-03T14:40:38;1.58;;;0.80;;
74614;SDS011;63121;51.458;-0.110;2023-03-03T14:45:57;3.10;;;1.27;;
74614;SDS011;63121;51.458;-0.110;2023-03-03T14:48:50;4.72;;;1.50;;
74614;SDS011;63121;51.458;-0.110;2023-03-03T14:51:32;4.13;;;1.30;;
74614;SDS011;63121;51.458;-0.110;2023-03-03T14:54:27;1.85;;;0.90;;
74614;SDS011;63121;51.458;-0.110;2023-03-03T14:56:56;4.55;;;0.90;;
74614;SDS011;63121;51.458;-0.110;2023-03-03T14:59:25;4.68;;;1.17;;
74614;SDS011;63121;51.458;-0.110;2023-03-03T15:04:41;2.70;;;1.10;;
74614;SDS011;63121;51.458;-0.110;2023-03-03T15:07:29;5.35;;;1.10;;
74614;SDS011;63121;51.458;-0.110;2023-03-03T15:09:59;3.53;;;1.08;;
74614;SDS011;63121;51.458;-0.110;2023-03-03T15:17:37;3.70;;;1.00;;
74614;SDS011;63121;51.458;-0.110;2023-03-03T15:23:29;2.33;;;0.88;;
74614;SDS011;63121;51.458;-0.110;2023-03-03T15:26:13;1.90;;;0.77;;
74614;SDS011;63121;51.458;-0.110;2023-03-03T15:34:32;1.70;;;0.82;;
74614;SDS011;63121;51.458;-0.110;2023-03-03T15:42:37;2.75;;;0.90;;
74614;SDS011;63121;51.458;-0.110;2023-03-03T15:45:28;3.22;;;1.25;;
74614;SDS011;63121;51.458;-0.110;2023-03-03T15:56:16;2.78;;;1.17;;
74614;SDS011;63121;51.458;-0.110;2023-03-03T16:04:33;2.85;;;0.95;;
74614;SDS011;63121;51.458;-0.110;2023-03-03T16:12:34;6.75;;;2.20;;
74614;SDS011;63121;51.458;-0.110;2023-03-03T16:17:41;2.05;;;0.95;;
74614;SDS011;63121;51.458;-0.110;2023-03-03T16:20:21;2.97;;;0.98;;
74614;SDS011;63121;51.458;-0.110;2023-03-03T16:25:52;1.65;;;0.90;;
74614;SDS011;63121;51.458;-0.110;2023-03-03T16:31:02;3.45;;;1.00;;
74614;SDS011;63121;51.458;-0.110;2023-03-03T16:33:47;3.30;;;0.90;;
74614;SDS011;63121;51.458;-0.110;2023-03-03T16:36:20;2.33;;;1.08;;
74614;SDS011;63121;51.458;-0.110;2023-03-03T16:52:13;3.40;;;1.15;;
74614;SDS011;63121;51.458;-0.110;2023-03-03T17:00:51;2.28;;;1.00;;
74614;SDS011;63121;51.458;-0.110;2023-03-03T17:03:44;1.88;;;1.00;;
74614;SDS011;63121;51.458;-0.110;2023-03-03T17:06:28;2.30;;;0.73;;
74614;SDS011;63121;51.458;-0.110;2023-03-03T17:09:06;2.47;;;0.90;;
74614;SDS011;63121;51.458;-0.110;2023-03-03T17:11:44;3.25;;;1.27;;
74614;SDS011;63121;51.458;-0.110;2023-03-03T17:19:40;2.13;;;0.77;;
74614;SDS011;63121;51.458;-0.110;2023-03-03T17:28:40;3.60;;;1.05;;
74614;SDS011;63121;51.458;-0.110;2023-03-03T17:37:15;2.67;;;1.02;;
74614;SDS011;63121;51.458;-0.110;2023-03-03T17:42:57;3.25;;;1.10;;
74614;SDS011;63121;51.458;-0.110;2023-03-03T17:45:26;2.70;;;1.00;;
74614;SDS011;63121;51.458;-0.110;2023-03-03T17:48:14;3.30;;;0.90;;
74614;SDS011;63121;51.458;-0.110;2023-03-03T17:53:42;4.10;;;1.20;;
74614;SDS011;63121;51.458;-0.110;2023-03-03T17:56:44;2.33;;;0.85;;
74614;SDS011;63121;51.458;-0.110;2023-03-03T17:59:48;3.33;;;1.10;;
74614;SDS011;63121;51.458;-0.110;2023-03-03T18:10:59;3.40;;;1.15;;
74614;SDS011;63121;51.458;-0.110;2023-03-03T18:19:11;5.10;;;1.40;;
74614;SDS011;63121;51.458;-0.110;2023-03-03T18:27:11;2.90;;;1.02;;
74614;SDS011;63121;51.458;-0.110;2023-03-03T18:35:26;3.60;;;1.30;;
74614;SDS011;63121;51.458;-0.110;2023-03-03T18:40:47;4.03;;;1.38;;
74614;SDS011;63121;51.458;-0.110;2023-03-03T18:46:07;4.28;;;1.33;;
74614;SDS011;63121;51.458;-0.110;2023-03-03T18:52:12;3.40;;;1.20;;
74614;SDS011;63121;51.458;-0.110;2023-03-03T19:01:54;4.55;;;1.48;;
74614;SDS011;63121;51.458;-0.110;2023-03-03T19:04:55;3.83;;;1.30;;
74614;SDS011;63121;51.458;-0.110;2023-03-03T19:07:56;6.40;;;1.60;;
74614;SDS011;63121;51.458;-0.110;2023-03-03T19:15:57;7.28;;;1.80;;
74614;SDS011;63121;51.458;-0.110;2023-03-03T19:18:26;4.43;;;1.60;;
74614;SDS011;63121;51.458;-0.110;2023-03-03T19:20:56;5.30;;;1.60;;
74614;SDS011;63121;51.458;-0.110;2023-03-03T19:23:45;4.40;;;1.48;;
74614;SDS011;63121;51.458;-0.110;2023-03-03T19:28:51;6.07;;;1.77;;
74614;SDS011;63121;51.458;-0.110;2023-03-03T19:34:13;3.50;;;1.35;;
74614;SDS011;63121;51.458;-0.110;2023-03-03T19:39:31;4.55;;;1.20;;
74614;SDS011;63121;51.458;-0.110;2023-03-03T19:42:04;4.57;;;1.40;;
74614;SDS011;63121;51.458;-0.110;2023-03-03T19:44:47;3.33;;;1.27;;
74614;SDS011;63121;51.458;-0.110;2023-03-03T19:50:42;6.45;;;1.40;;
74614;SDS011;63121;51.458;-0.110;2023-03-03T19:56:18;5.32;;;1.50;;
74614;SDS011;63121;51.458;-0.110;2023-03-03T20:01:44;5.75;;;1.50;;
74614;SDS011;63121;51.458;-0.110;2023-03-03T20:12:52;7.93;;;1.77;;
74614;SDS011;63121;51.458;-0.110;2023-03-03T20:21:07;6.93;;;1.60;;
74614;SDS011;63121;51.458;-0.110;2023-03-03T20:24:03;4.07;;;1.30;;
74614;SDS011;63121;51.458;-0.110;2023-03-03T20:29:13;4.20;;;1.45;;
74614;SDS011;63121;51.458;-0.110;2023-03-03T20:32:08;3.28;;;1.13;;
74614;SDS011;63121;51.458;-0.110;2023-03-03T20:40:36;8.40;;;1.60;;
74614;SDS011;63121;51.458;-0.110;2023-03-03T20:46:42;6.80;;;1.70;;
74614;SDS011;63121;51.458;-0.110;2023-03-03T20:49:37;6.60;;;1.80;;
74614;SDS011;63121;51.458;-0.110;2023-03-03T20:54:53;8.48;;;1.58;;
74614;SDS011;63121;51.458;-0.110;2023-03-03T21:00:21;6.38;;;1.30;;
74614;SDS011;63121;51.458;-0.110;2023-03-03T21:05:34;5.82;;;1.35;;
74614;SDS011;63121;51.458;-0.110;2023-03-03T21:08:03;6.93;;;1.40;;
74614;SDS011;63121;51.458;-0.110;2023-03-03T21:10:30;5.50;;;1.60;;
74614;SDS011;63121;51.458;-0.110;2023-03-03T21:15:43;7.32;;;1.30;;
74614;SDS011;63121;51.458;-0.110;2023-03-03T21:18:26;7.10;;;1.42;;
74614;SDS011;63121;51.458;-0.110;2023-03-03T21:20:51;7.20;;;1.60;;
74614;SDS011;63121;51.458;-0.110;2023-03-03T21:23:17;5.43;;;1.33;;
74614;SDS011;63121;51.458;-0.110;2023-03-03T21:25:54;5.28;;;1.45;;
74614;SDS011;63121;51.458;-0.110;2023-03-03T21:28:30;11.80;;;1.45;;
74614;SDS011;63121;51.458;-0.110;2023-03-03T21:31:04;8.57;;;1.10;;
74614;SDS011;63121;51.458;-0.110;2023-03-03T21:36:04;5.05;;;1.00;;
74614;SDS011;63121;51.458;-0.110;2023-03-03T21:41:00;5.25;;;1.27;;
74614;SDS011;63121;51.458;-0.110;2023-03-03T21:43:34;3.20;;;0.88;;
74614;SDS011;63121;51.458;-0.110;2023-03-03T21:46:04;5.50;;;1.30;;
74614;SDS011;63121;51.458;-0.110;2023-03-03T21:48:29;5.22;;;1.40;;
74614;SDS011;63121;51.458;-0.110;2023-03-03T21:50:55;9.07;;;1.23;;
74614;SDS011;63121;51.458;-0.110;2023-03-03T21:53:21;6.95;;;1.33;;
74614;SDS011;63121;51.458;-0.110;2023-03-03T21:55:48;5.57;;;1.50;;
74614;SDS011;63121;51.458;-0.110;2023-03-03T21:58:17;7.07;;;1.30;;